createdAt,value
2018-03-25T00:00:34.570Z,4.60
2018-03-25T00:03:03.674Z,4.60
2018-03-25T00:05:32.022Z,4.60
2018-03-25T00:08:00.359Z,4.50
2018-03-25T00:10:28.690Z,4.50
2018-03-25T00:12:57.062Z,4.50
2018-03-25T00:15:25.383Z,4.60
2018-03-25T00:17:54.491Z,4.60
2018-03-25T00:20:23.585Z,4.60
2018-03-25T00:22:51.929Z,4.60
2018-03-25T00:25:20.279Z,4.60
2018-03-25T00:27:48.645Z,4.50
2018-03-25T00:30:17.768Z,4.50
2018-03-25T00:32:46.101Z,4.50
2018-03-25T00:35:15.225Z,4.50
2018-03-25T00:37:43.555Z,4.50
2018-03-25T00:40:11.897Z,4.50
2018-03-25T00:42:40.247Z,4.40
2018-03-25T00:45:08.588Z,4.40
2018-03-25T00:47:36.944Z,4.40
2018-03-25T00:50:05.267Z,4.40
2018-03-25T00:52:33.589Z,4.40
2018-03-25T00:55:02.691Z,4.30
2018-03-25T00:57:31.812Z,4.30
2018-03-25T01:00:00.893Z,4.20
2018-03-25T01:02:30.021Z,4.20
2018-03-25T01:04:58.369Z,4.10
2018-03-25T01:07:27.461Z,4.10
2018-03-25T01:09:56.579Z,4.10
2018-03-25T01:12:25.679Z,4.10
2018-03-25T01:14:54.796Z,4.20
2018-03-25T01:17:23.134Z,4.20
2018-03-25T01:19:52.243Z,4.20
2018-03-25T01:22:20.568Z,4.20
2018-03-25T01:24:48.935Z,4.20
2018-03-25T01:27:17.285Z,4.20
2018-03-25T01:29:46.377Z,4.10
2018-03-25T01:32:14.722Z,4.10
2018-03-25T01:34:43.125Z,4.10
2018-03-25T01:37:11.463Z,4.10
2018-03-25T01:39:39.871Z,4.10
2018-03-25T01:42:08.225Z,4.00
2018-03-25T01:44:37.300Z,3.80
2018-03-25T01:47:05.641Z,3.80
2018-03-25T01:49:34.000Z,3.80
2018-03-25T01:52:02.333Z,3.80
2018-03-25T01:54:30.684Z,3.70
2018-03-25T01:56:59.018Z,3.70
2018-03-25T01:59:27.351Z,3.60
2018-03-25T02:01:56.491Z,3.70
2018-03-25T02:04:25.621Z,3.60
2018-03-25T02:06:54.705Z,3.60
2018-03-25T02:09:23.809Z,3.60
2018-03-25T02:11:52.921Z,3.50
2018-03-25T02:14:22.005Z,3.50
2018-03-25T02:16:51.145Z,3.50
2018-03-25T02:19:19.529Z,3.50
2018-03-25T02:21:47.863Z,3.50
2018-03-25T02:24:16.241Z,3.50
2018-03-25T02:26:44.596Z,3.50
2018-03-25T02:29:12.962Z,3.50
2018-03-25T02:31:41.341Z,3.60
2018-03-25T02:34:09.724Z,3.60
2018-03-25T02:36:38.113Z,3.60
2018-03-25T02:39:06.468Z,3.60
2018-03-25T02:41:35.576Z,3.70
2018-03-25T02:44:03.900Z,3.70
2018-03-25T02:49:06.750Z,3.80
2018-03-25T02:51:35.883Z,3.90
2018-03-25T02:54:04.230Z,3.80
2018-03-25T02:56:33.423Z,3.90
2018-03-25T02:59:01.740Z,3.90
2018-03-25T03:01:30.080Z,3.90
2018-03-25T03:03:58.430Z,3.90
2018-03-25T03:06:26.745Z,3.90
2018-03-25T03:08:55.117Z,3.90
2018-03-25T03:11:23.452Z,3.90
2018-03-25T03:13:51.753Z,3.90
2018-03-25T03:16:20.069Z,3.90
2018-03-25T03:18:48.467Z,3.90
2018-03-25T03:21:16.829Z,3.80
2018-03-25T03:23:45.188Z,3.80
2018-03-25T03:26:13.530Z,3.70
2018-03-25T03:28:41.879Z,3.70
2018-03-25T03:31:10.226Z,3.60
2018-03-25T03:33:38.572Z,3.60
2018-03-25T03:36:07.641Z,3.40
2018-03-25T03:38:36.789Z,3.40
2018-03-25T03:41:05.105Z,3.40
2018-03-25T03:43:33.459Z,3.40
2018-03-25T03:46:01.782Z,3.40
2018-03-25T03:48:30.143Z,3.40
2018-03-25T03:50:58.507Z,3.40
2018-03-25T03:53:26.841Z,3.40
2018-03-25T03:55:55.165Z,3.40
2018-03-25T03:58:23.573Z,3.40
2018-03-25T04:00:51.932Z,3.50
2018-03-25T04:03:20.257Z,3.60
2018-03-25T04:05:48.591Z,3.60
2018-03-25T04:08:17.710Z,3.60
2018-03-25T04:10:46.097Z,3.60
2018-03-25T04:13:14.477Z,3.60
2018-03-25T04:15:42.849Z,3.60
2018-03-25T04:18:11.261Z,3.60
2018-03-25T04:20:39.591Z,3.50
2018-03-25T04:23:07.913Z,3.50
2018-03-25T04:25:36.261Z,3.50
2018-03-25T04:28:04.727Z,3.50
2018-03-25T04:30:33.058Z,3.50
2018-03-25T04:33:01.393Z,3.40
2018-03-25T04:35:29.738Z,3.30
2018-03-25T04:37:58.081Z,3.20
2018-03-25T04:40:27.200Z,3.20
2018-03-25T04:42:55.543Z,3.10
2018-03-25T04:45:24.669Z,3.10
2018-03-25T04:47:53.059Z,3.10
2018-03-25T04:50:21.444Z,3.10
2018-03-25T04:52:51.069Z,3.00
2018-03-25T04:55:19.411Z,3.00
2018-03-25T04:57:47.737Z,3.00
2018-03-25T05:00:16.043Z,3.00
2018-03-25T05:02:44.382Z,3.00
2018-03-25T05:05:13.478Z,2.80
2018-03-25T05:07:41.856Z,2.80
2018-03-25T05:10:10.951Z,2.80
2018-03-25T05:12:40.049Z,2.80
2018-03-25T05:15:09.157Z,2.80
2018-03-25T05:17:38.263Z,2.70
2018-03-25T05:20:07.373Z,2.70
2018-03-25T05:22:35.698Z,2.70
2018-03-25T05:25:04.801Z,2.70
2018-03-25T05:27:33.127Z,2.80
2018-03-25T05:30:02.239Z,2.80
2018-03-25T05:32:30.573Z,2.80
2018-03-25T05:34:58.891Z,2.80
2018-03-25T05:37:27.990Z,2.90
2018-03-25T05:39:57.084Z,2.90
2018-03-25T05:42:26.189Z,3.00
2018-03-25T05:44:55.304Z,3.00
2018-03-25T05:47:23.700Z,3.00
2018-03-25T05:49:52.037Z,3.10
2018-03-25T05:52:20.466Z,3.20
2018-03-25T05:54:48.859Z,3.30
2018-03-25T05:57:17.239Z,3.40
2018-03-25T05:59:45.558Z,3.50
2018-03-25T06:02:13.869Z,3.70
2018-03-25T06:04:42.967Z,4.00
2018-03-25T06:07:12.109Z,4.20
2018-03-25T06:09:40.431Z,4.20
2018-03-25T06:12:08.759Z,4.40
2018-03-25T06:14:37.101Z,4.60
2018-03-25T06:17:05.434Z,4.80
2018-03-25T06:19:33.775Z,5.00
2018-03-25T06:22:02.881Z,5.30
2018-03-25T06:24:31.976Z,5.50
2018-03-25T06:27:01.069Z,5.60
2018-03-25T06:29:29.459Z,5.60
2018-03-25T06:31:57.805Z,5.80
2018-03-25T06:34:26.138Z,6.00
2018-03-25T06:36:55.357Z,6.30
2018-03-25T06:39:23.664Z,6.30
2018-03-25T06:41:51.994Z,6.50
2018-03-25T06:44:21.116Z,6.80
2018-03-25T06:46:49.441Z,6.90
2018-03-25T06:49:17.775Z,7.10
2018-03-25T06:51:46.078Z,7.20
2018-03-25T06:54:14.514Z,7.40
2018-03-25T06:56:42.805Z,7.50
2018-03-25T06:59:12.023Z,7.80
2018-03-25T07:01:40.341Z,7.80
2018-03-25T07:04:08.667Z,8.00
2018-03-25T07:06:36.988Z,8.20
2018-03-25T07:09:05.314Z,8.30
2018-03-25T07:11:33.655Z,8.50
2018-03-25T07:14:01.966Z,8.70
2018-03-25T07:16:30.293Z,8.90
2018-03-25T07:18:59.409Z,9.20
2018-03-25T07:21:27.739Z,9.10
2018-03-25T07:23:56.094Z,9.30
2018-03-25T07:26:24.447Z,9.40
2018-03-25T07:28:52.795Z,9.50
2018-03-25T07:31:21.097Z,9.60
2018-03-25T07:33:50.171Z,9.90
2018-03-25T07:36:18.488Z,9.90
2018-03-25T07:38:47.594Z,10.40
2018-03-25T07:41:15.952Z,10.40
2018-03-25T07:43:44.534Z,10.60
2018-03-25T07:46:12.846Z,10.90
2018-03-25T07:48:41.929Z,11.40
2018-03-25T07:51:10.298Z,11.40
2018-03-25T07:53:38.666Z,11.70
2018-03-25T07:56:06.988Z,12.00
2018-03-25T07:58:36.096Z,12.50
2018-03-25T08:01:04.430Z,12.50
2018-03-25T08:03:32.745Z,12.80
2018-03-25T08:06:01.824Z,13.20
2018-03-25T08:08:30.147Z,13.20
2018-03-25T08:10:58.464Z,13.40
2018-03-25T08:13:27.058Z,13.70
2018-03-25T08:15:55.355Z,13.80
2018-03-25T08:18:23.674Z,14.00
2018-03-25T08:20:52.002Z,14.10
2018-03-25T08:23:20.366Z,14.30
2018-03-25T08:25:48.688Z,14.50
2018-03-25T08:28:17.008Z,14.60
2018-03-25T08:30:45.348Z,14.70
2018-03-25T08:33:13.686Z,14.80
2018-03-25T08:35:42.046Z,14.90
2018-03-25T08:38:11.125Z,15.20
2018-03-25T08:40:40.216Z,15.30
2018-03-25T08:43:08.528Z,15.30
2018-03-25T08:45:37.614Z,15.60
2018-03-25T08:48:05.950Z,15.60
2018-03-25T08:50:34.270Z,15.80
2018-03-25T08:53:02.591Z,16.00
2018-03-25T08:55:30.922Z,16.10
2018-03-25T08:57:59.237Z,16.40
2018-03-25T09:00:28.328Z,16.90
2018-03-25T09:02:57.404Z,17.00
2018-03-25T09:05:25.708Z,17.00
2018-03-25T09:07:54.794Z,17.20
2018-03-25T09:10:23.860Z,17.20
2018-03-25T09:12:52.178Z,17.30
2018-03-25T09:15:20.506Z,17.60
2018-03-25T09:17:48.812Z,17.80
2018-03-25T09:20:17.134Z,17.90
2018-03-25T09:22:45.466Z,18.00
2018-03-25T09:25:14.478Z,18.10
2018-03-25T09:27:42.816Z,18.10
2018-03-25T09:30:11.152Z,18.30
2018-03-25T09:32:39.510Z,18.40
2018-03-25T09:35:07.842Z,18.60
2018-03-25T09:37:36.230Z,18.80
2018-03-25T09:40:05.408Z,19.20
2018-03-25T09:42:33.738Z,19.20
2018-03-25T09:45:02.172Z,19.30
2018-03-25T09:47:30.506Z,19.50
2018-03-25T09:49:58.852Z,19.60
2018-03-25T09:52:27.170Z,19.50
2018-03-25T09:54:55.481Z,19.60
2018-03-25T09:57:23.796Z,19.70
2018-03-25T09:59:52.124Z,19.70
2018-03-25T10:02:25.927Z,19.60
2018-03-25T10:04:54.291Z,19.50
2018-03-25T10:07:24.366Z,19.60
2018-03-25T10:09:52.695Z,19.70
2018-03-25T10:12:21.818Z,19.80
2018-03-25T10:14:50.185Z,19.80
2018-03-25T10:17:18.668Z,19.90
2018-03-25T10:19:47.086Z,20.00
2018-03-25T10:22:15.479Z,20.00
2018-03-25T10:24:43.851Z,20.00
2018-03-25T10:27:13.026Z,20.00
2018-03-25T10:29:41.354Z,19.90
2018-03-25T10:32:09.744Z,19.90
2018-03-25T10:34:38.127Z,19.90
2018-03-25T10:37:06.577Z,19.90
2018-03-25T10:39:34.928Z,20.10
2018-03-25T10:42:04.032Z,20.40
2018-03-25T10:44:33.113Z,20.60
2018-03-25T10:47:01.449Z,20.60
2018-03-25T10:49:29.821Z,20.70
2018-03-25T10:51:58.127Z,20.80
2018-03-25T10:54:26.457Z,21.10
2018-03-25T10:56:55.575Z,21.40
2018-03-25T10:59:23.922Z,21.40
2018-03-25T11:01:53.051Z,21.80
2018-03-25T11:04:22.150Z,22.10
2018-03-25T11:06:50.478Z,22.00
2018-03-25T11:09:18.833Z,22.30
2018-03-25T11:11:47.181Z,22.40
2018-03-25T11:14:15.493Z,22.50
2018-03-25T11:16:43.900Z,22.60
2018-03-25T11:19:12.221Z,22.80
2018-03-25T11:21:40.535Z,22.80
2018-03-25T11:24:08.884Z,22.50
2018-03-25T11:26:37.219Z,22.60
2018-03-25T11:29:05.527Z,22.80
2018-03-25T11:31:33.851Z,22.90
2018-03-25T11:34:02.265Z,23.00
2018-03-25T11:36:30.595Z,23.00
2018-03-25T11:38:58.931Z,22.90
2018-03-25T11:41:27.237Z,22.80
2018-03-25T11:43:55.596Z,22.80
2018-03-25T11:46:23.939Z,22.70
2018-03-25T11:48:53.045Z,22.60
2018-03-25T11:51:22.865Z,22.50
2018-03-25T11:53:51.971Z,22.60
2018-03-25T11:56:20.311Z,22.60
2018-03-25T11:58:48.620Z,22.60
2018-03-25T12:01:16.940Z,22.70
2018-03-25T12:03:45.255Z,23.00
2018-03-25T12:06:13.602Z,23.10
2018-03-25T12:08:41.975Z,23.30
2018-03-25T12:11:10.392Z,23.40
2018-03-25T12:13:38.646Z,23.60
2018-03-25T12:16:07.007Z,23.70
2018-03-25T12:18:36.094Z,24.00
2018-03-25T12:21:05.206Z,23.90
2018-03-25T12:23:33.528Z,23.90
2018-03-25T12:26:01.873Z,23.90
2018-03-25T12:28:30.957Z,24.00
2018-03-25T12:30:59.275Z,24.00
2018-03-25T12:33:27.579Z,24.10
2018-03-25T12:35:55.885Z,24.00
2018-03-25T12:38:24.210Z,24.10
2018-03-25T12:40:53.201Z,24.20
2018-03-25T12:43:22.293Z,24.00
2018-03-25T12:45:51.395Z,23.80
2018-03-25T12:48:20.481Z,23.80
2018-03-25T12:50:48.807Z,23.70
2018-03-25T12:53:17.214Z,23.90
2018-03-25T12:55:45.527Z,24.10
2018-03-25T12:58:13.857Z,24.30
2018-03-25T13:00:42.169Z,24.60
2018-03-25T13:03:10.494Z,24.70
2018-03-25T13:05:39.558Z,24.90
2018-03-25T13:08:07.885Z,24.90
2018-03-25T13:10:37.083Z,25.10
2018-03-25T13:13:05.421Z,25.10
2018-03-25T13:15:34.509Z,24.80
2018-03-25T13:18:02.833Z,24.80
2018-03-25T13:20:31.928Z,24.70
2018-03-25T13:23:01.033Z,24.70
2018-03-25T13:25:30.141Z,25.00
2018-03-25T13:27:59.238Z,25.20
2018-03-25T13:30:28.339Z,25.60
2018-03-25T13:32:57.469Z,25.90
2018-03-25T13:35:25.852Z,25.80
2018-03-25T13:37:54.179Z,26.10
2018-03-25T13:40:22.489Z,26.30
2018-03-25T13:42:51.571Z,26.70
2018-03-25T13:45:20.680Z,26.80
2018-03-25T13:47:49.775Z,27.30
2018-03-25T13:50:18.859Z,27.90
2018-03-25T13:52:47.190Z,27.90
2018-03-25T13:55:15.519Z,28.50
2018-03-25T13:57:43.845Z,29.20
2018-03-25T14:00:12.240Z,29.60
2018-03-25T14:02:40.565Z,29.90
2018-03-25T14:05:08.883Z,30.30
2018-03-25T14:07:37.974Z,31.10
2018-03-25T14:10:07.049Z,31.10
2018-03-25T14:12:35.363Z,31.10
2018-03-25T14:15:04.463Z,31.30
2018-03-25T14:17:33.566Z,31.20
2018-03-25T14:20:02.705Z,31.00
2018-03-25T14:22:31.019Z,31.00
2018-03-25T14:24:59.385Z,31.10
2018-03-25T14:27:27.716Z,31.20
2018-03-25T14:29:56.799Z,31.00
2018-03-25T14:32:25.134Z,30.40
2018-03-25T14:34:53.441Z,29.60
2018-03-25T14:37:21.790Z,28.70
2018-03-25T14:39:50.116Z,28.10
2018-03-25T14:42:18.451Z,27.80
2018-03-25T14:44:46.784Z,27.30
2018-03-25T14:47:15.121Z,26.70
2018-03-25T14:49:43.435Z,26.00
2018-03-25T14:52:11.782Z,25.30
2018-03-25T14:54:40.176Z,24.80
2018-03-25T14:57:08.504Z,24.40
2018-03-25T14:59:37.595Z,23.60
2018-03-25T15:02:05.941Z,23.60
2018-03-25T15:04:35.157Z,23.20
2018-03-25T15:07:03.474Z,22.70
2018-03-25T15:09:32.562Z,21.90
2018-03-25T15:12:00.971Z,21.90
2018-03-25T15:14:30.067Z,21.30
2018-03-25T15:16:59.164Z,21.00
2018-03-25T15:19:28.278Z,20.70
2018-03-25T15:21:56.644Z,20.70
2018-03-25T15:24:25.740Z,20.00
2018-03-25T15:26:54.875Z,19.70
2018-03-25T15:29:23.236Z,19.60
2018-03-25T15:31:52.381Z,19.10
2018-03-25T15:34:21.561Z,19.00
2018-03-25T15:36:49.951Z,18.80
2018-03-25T15:39:18.270Z,18.70
2018-03-25T15:41:46.583Z,18.60
2018-03-25T15:44:15.696Z,18.20
2018-03-25T15:46:44.015Z,18.20
2018-03-25T15:49:12.322Z,18.00
2018-03-25T15:51:40.637Z,17.70
2018-03-25T15:54:08.974Z,17.50
2018-03-25T15:56:37.524Z,17.20
2018-03-25T15:59:06.058Z,17.00
2018-03-25T16:01:35.267Z,16.70
2018-03-25T16:04:04.352Z,16.60
2018-03-25T16:06:32.687Z,16.50
2018-03-25T16:09:01.019Z,16.50
2018-03-25T16:11:29.419Z,16.40
2018-03-25T16:13:58.728Z,16.10
2018-03-25T16:16:27.081Z,16.00
2018-03-25T16:18:55.434Z,16.00
2018-03-25T16:21:23.757Z,15.90
2018-03-25T16:23:52.067Z,15.90
2018-03-25T16:26:21.266Z,15.60
2018-03-25T16:28:49.836Z,15.60
2018-03-25T16:31:19.031Z,15.20
2018-03-25T16:33:47.808Z,15.20
2018-03-25T16:36:16.132Z,14.90
2018-03-25T16:38:45.236Z,14.50
2018-03-25T16:41:14.531Z,14.20
2018-03-25T16:43:42.870Z,14.20
2018-03-25T16:46:11.409Z,14.00
2018-03-25T16:48:39.970Z,13.90
2018-03-25T16:51:09.077Z,13.70
2018-03-25T16:53:37.603Z,13.70
2018-03-25T16:56:05.990Z,13.60
2018-03-25T16:58:34.513Z,13.60
2018-03-25T17:01:03.701Z,13.40
2018-03-25T17:03:32.039Z,13.40
2018-03-25T17:06:01.134Z,13.20
2018-03-25T17:08:30.374Z,13.10
2018-03-25T17:10:58.720Z,13.10
2018-03-25T17:13:27.875Z,13.10
2018-03-25T17:15:56.229Z,13.10
2018-03-25T17:18:24.559Z,13.10
2018-03-25T17:20:52.874Z,13.20
2018-03-25T17:23:22.025Z,13.40
2018-03-25T17:25:50.406Z,13.30
2018-03-25T17:28:18.734Z,13.40
2018-03-25T17:30:47.055Z,13.30
2018-03-25T17:33:15.451Z,13.20
2018-03-25T17:35:43.790Z,13.00
2018-03-25T17:38:12.120Z,12.70
2018-03-25T17:40:40.477Z,12.30
2018-03-25T17:43:08.787Z,12.00
2018-03-25T17:45:37.207Z,11.60
2018-03-25T17:48:05.538Z,11.20
2018-03-25T17:50:33.908Z,10.90
2018-03-25T17:53:02.275Z,10.60
2018-03-25T17:55:31.354Z,10.00
2018-03-25T17:57:59.668Z,9.90
2018-03-25T18:00:27.984Z,9.70
2018-03-25T18:02:56.300Z,9.50
2018-03-25T18:05:25.421Z,9.10
2018-03-25T18:07:54.213Z,9.10
2018-03-25T18:10:23.303Z,8.80
2018-03-25T18:12:52.401Z,8.60
2018-03-25T18:15:21.495Z,8.50
2018-03-25T18:17:50.588Z,8.50
2018-03-25T18:20:18.911Z,8.40
2018-03-25T18:22:47.207Z,8.40
2018-03-25T18:25:15.514Z,8.20
2018-03-25T18:27:43.959Z,8.10
2018-03-25T18:30:12.291Z,8.10
2018-03-25T18:32:40.848Z,8.00
2018-03-25T18:35:09.188Z,7.90
2018-03-25T18:37:38.247Z,7.70
2018-03-25T18:40:06.568Z,7.70
2018-03-25T18:42:35.728Z,7.60
2018-03-25T18:45:04.103Z,7.60
2018-03-25T18:47:32.530Z,7.50
2018-03-25T18:50:00.909Z,7.50
2018-03-25T18:52:29.341Z,7.40
2018-03-25T18:54:57.698Z,7.40
2018-03-25T18:57:26.063Z,7.30
2018-03-25T18:59:54.442Z,7.30
2018-03-25T19:02:22.760Z,7.20
2018-03-25T19:04:51.081Z,7.20
2018-03-25T19:07:19.517Z,7.10
2018-03-25T19:09:47.935Z,7.00
2018-03-25T19:12:16.273Z,7.00
2018-03-25T19:14:44.609Z,6.90
2018-03-25T19:17:13.203Z,6.80
2018-03-25T19:19:42.577Z,6.70
2018-03-25T19:22:10.957Z,6.70
2018-03-25T19:24:39.528Z,6.70
2018-03-25T19:27:08.201Z,6.60
2018-03-25T19:29:36.604Z,6.60
2018-03-25T19:32:05.210Z,6.50
2018-03-25T19:34:33.621Z,6.40
2018-03-25T19:37:01.941Z,6.40
2018-03-25T19:39:31.132Z,6.30
2018-03-25T19:41:59.687Z,6.30
2018-03-25T19:44:28.331Z,6.30
2018-03-25T19:46:56.752Z,6.20
2018-03-25T19:49:25.141Z,6.20
2018-03-25T19:51:53.526Z,6.20
2018-03-25T19:54:25.485Z,6.10
2018-03-25T19:56:55.236Z,6.10
2018-03-25T19:59:24.444Z,6.00
2018-03-25T20:01:54.680Z,6.00
2018-03-25T20:04:26.393Z,6.00
2018-03-25T20:06:54.709Z,5.90
2018-03-25T20:09:23.811Z,5.90
2018-03-25T20:11:52.933Z,5.80
2018-03-25T20:14:22.130Z,5.80
2018-03-25T20:16:50.466Z,5.80
2018-03-25T20:19:18.799Z,5.80
2018-03-25T20:21:48.213Z,5.70
2018-03-25T20:24:17.284Z,5.70
2018-03-25T20:26:45.613Z,5.70
2018-03-25T20:29:13.996Z,5.70
2018-03-25T20:31:42.382Z,5.60
2018-03-25T20:34:10.762Z,5.60
2018-03-25T20:36:39.099Z,5.70
2018-03-25T20:39:07.416Z,5.70
2018-03-25T20:41:35.746Z,5.80
2018-03-25T20:44:04.083Z,5.90
2018-03-25T20:46:32.408Z,5.90
2018-03-25T20:49:00.751Z,6.00
2018-03-25T20:51:29.099Z,6.00
2018-03-25T20:53:58.186Z,6.00
2018-03-25T20:56:26.502Z,6.00
2018-03-25T20:58:54.825Z,6.00
2018-03-25T21:01:23.157Z,6.00
2018-03-25T21:03:52.234Z,5.90
2018-03-25T21:06:20.544Z,5.90
2018-03-25T21:08:49.645Z,5.80
2018-03-25T21:11:18.794Z,5.80
2018-03-25T21:13:47.867Z,5.80
2018-03-25T21:16:16.188Z,5.70
2018-03-25T21:18:44.510Z,5.70
2018-03-25T21:21:12.823Z,5.60
2018-03-25T21:23:41.161Z,5.50
2018-03-25T21:26:10.250Z,5.30
2018-03-25T21:28:38.566Z,5.20
2018-03-25T21:31:06.879Z,5.20
2018-03-25T21:33:35.225Z,5.00
2018-03-25T21:36:03.544Z,5.00
2018-03-25T21:38:31.861Z,4.90
2018-03-25T21:41:00.944Z,4.70
2018-03-25T21:43:29.240Z,4.70
2018-03-25T21:45:57.570Z,4.70
2018-03-25T21:48:25.878Z,4.60
2018-03-25T21:50:54.190Z,4.60
2018-03-25T21:53:22.514Z,4.60
2018-03-25T21:55:50.890Z,4.60
2018-03-25T21:58:19.216Z,4.60
2018-03-25T22:00:47.554Z,4.60
2018-03-25T22:03:15.864Z,4.50
2018-03-25T22:05:44.202Z,4.50
2018-03-25T22:08:13.280Z,4.50
2018-03-25T22:10:41.582Z,4.40
2018-03-25T22:13:10.656Z,4.40
2018-03-25T22:15:39.002Z,4.40
2018-03-25T22:18:08.093Z,4.40
2018-03-25T22:20:36.408Z,4.40
2018-03-25T22:23:04.744Z,4.40
2018-03-25T22:25:33.074Z,4.30
2018-03-25T22:28:01.388Z,4.30
2018-03-25T22:30:30.467Z,4.30
2018-03-25T22:32:58.781Z,4.30
2018-03-25T22:35:27.102Z,4.30
2018-03-25T22:37:55.414Z,4.30
2018-03-25T22:40:23.736Z,4.30
2018-03-25T22:42:52.038Z,4.30
2018-03-25T22:45:20.363Z,4.30
2018-03-25T22:47:48.676Z,4.30
2018-03-25T22:50:16.983Z,4.30
2018-03-25T22:52:45.286Z,4.30
2018-03-25T22:55:13.652Z,4.30
2018-03-25T22:57:41.964Z,4.30
2018-03-25T23:00:10.360Z,4.30
2018-03-25T23:02:38.685Z,4.30
2018-03-25T23:05:07.016Z,4.30
2018-03-25T23:07:35.312Z,4.20
2018-03-25T23:10:04.402Z,4.20
2018-03-25T23:12:32.719Z,4.20
2018-03-25T23:15:01.020Z,4.30
2018-03-25T23:17:29.323Z,4.20
2018-03-25T23:19:57.767Z,4.20
2018-03-25T23:22:26.089Z,4.20
2018-03-25T23:24:54.411Z,4.20
2018-03-25T23:27:23.479Z,4.20
2018-03-25T23:29:51.792Z,4.20
2018-03-25T23:32:21.031Z,4.10
2018-03-25T23:34:49.345Z,4.20
2018-03-25T23:37:17.671Z,4.10
2018-03-25T23:39:46.745Z,4.00
2018-03-25T23:42:15.057Z,4.00
2018-03-25T23:44:43.373Z,4.00
2018-03-25T23:47:11.691Z,4.00
2018-03-25T23:49:40.005Z,4.00
2018-03-25T23:52:08.337Z,4.00
2018-03-25T23:54:36.642Z,4.00
2018-03-25T23:57:05.716Z,4.10
2018-03-25T23:59:34.033Z,4.00
